Spring Mountain Youth Camp, Nevada Weather observations

Data are for 60 minute period ending at time listed.
 Day   Time   Solar   Ave.   Ave.  Ave.  Vector  Max.   Baro.   Total    
  of    of     Rad.   Air    Rel.  Wind   Wind   Wind  Press.  Precip.   
Year   Day            Temp.  Hum.  Speed  Dir.   Gust                    
2016   (PST)  Kw/m2    F      %     mph   deg.    mph    mb.     in.     
-------------------------------------------------------------------------
 177   19:00   0.05   70.2    14    2.8    85     7.7   794.7    0.00 
 177   20:00   0.00   68.0    15    3.4   119     6.4   794.9    0.00 
 177   21:00   0.00   65.5    18    3.9   147     7.2   795.2    0.00 
 177   22:00   0.00   63.1    20    4.6   162     9.1   795.3    0.00 
 177   23:00   0.00   63.6    21    4.2   145     9.0   795.4    0.00 
 178    0:00   0.00   63.0    21    2.5   126     6.1   795.4    0.00 
 178    1:00   0.00   63.7    18    3.0   130     6.7   795.4    0.00 
 178    2:00   0.00   63.8    16    2.5   128     7.7   795.3    0.00 
 178    3:00   0.00   63.5    15    2.7   111     4.7   795.4    0.00 
 178    4:00   0.00   63.7    14    2.3   102     5.0   795.5    0.00 
 178    5:00   0.01   63.8    15    3.8   107     6.8   795.8    0.00 
 178    6:00   0.07   64.8    15    1.6    66     3.4   795.9    0.00 
 178    7:00   0.33   71.9    15    1.9   105     5.8   796.3    0.00 
 178    8:00   0.44   71.3    17    4.5   152    11.5   796.4    0.00 
 178    9:00   0.42   72.5    16    7.4   152    17.0   796.4    0.00 
 178   10:00   0.86   73.1    16   10.0   146    20.0   796.4    0.00 
 178   11:00   0.97   74.8    15   10.5   149    19.9   796.5    0.00 
 178   12:00   1.02   76.0    14   11.6   156    28.4   796.5    0.00 
 178   13:00   1.01   78.0    14   11.8   162    28.4   796.2    0.00 
 178   14:00   0.95   79.0    13    6.7   163    19.5   796.1    0.00 
 178   15:00   0.83   78.7    13    6.5    57    19.4   795.9    0.00 
 178   16:00   0.67   78.7    13    5.0    46    24.0   795.7    0.00 
 178   17:00   0.47   78.0    14    4.6    40    16.3   795.6    0.00 
 178   18:00   0.26   76.6    14    3.9    61    14.3   795.8    0.00 

Return to Spring Mountain Youth Camp graphs page.


Western Regional Climate Center,wrcc@dri.edu